createdAt,value
2022-10-26T00:01:22.852Z,9.23
2022-10-26T00:03:50.857Z,8.25
2022-10-26T00:06:21.661Z,7.82
2022-10-26T00:08:49.804Z,8.02
2022-10-26T00:11:19.827Z,8.95
2022-10-26T00:13:48.538Z,9.45
2022-10-26T00:16:18.256Z,8.93
2022-10-26T00:21:19.871Z,8.65
2022-10-26T00:23:47.763Z,8.00
2022-10-26T00:26:15.697Z,7.07
2022-10-26T00:28:45.796Z,6.65
2022-10-26T00:31:16.162Z,7.20
2022-10-26T00:33:44.623Z,6.65
2022-10-26T00:36:14.761Z,7.40
2022-10-26T00:38:46.261Z,6.68
2022-10-26T00:41:16.550Z,7.35
2022-10-26T00:43:46.399Z,8.23
2022-10-26T00:46:17.210Z,8.48
2022-10-26T00:48:48.819Z,8.85
2022-10-26T00:51:23.383Z,8.10
2022-10-26T00:53:52.280Z,7.72
2022-10-26T00:56:20.651Z,7.05
2022-10-26T00:58:50.150Z,7.00
2022-10-26T01:01:17.944Z,7.15
2022-10-26T01:03:46.907Z,6.45
2022-10-26T01:06:15.251Z,6.82
2022-10-26T01:08:44.582Z,7.25
2022-10-26T01:11:13.310Z,6.45
2022-10-26T01:13:43.501Z,6.82
2022-10-26T01:16:32.681Z,7.35
2022-10-26T01:19:17.141Z,6.68
2022-10-26T01:21:51.240Z,6.15
2022-10-26T01:24:58.733Z,6.10
2022-10-26T01:27:31.491Z,6.20
2022-10-26T01:30:25.261Z,6.07
2022-10-26T01:33:15.449Z,6.65
2022-10-26T01:35:50.330Z,6.40
2022-10-26T01:38:44.930Z,6.07
2022-10-26T01:41:17.763Z,6.35
2022-10-26T01:43:51.171Z,5.88
2022-10-26T01:46:24.162Z,6.57
2022-10-26T01:48:55.670Z,5.85
2022-10-26T01:51:25.241Z,5.50
2022-10-26T01:53:52.951Z,5.85
2022-10-26T01:56:23.742Z,6.53
2022-10-26T01:59:12.345Z,6.82
2022-10-26T02:02:03.990Z,6.88
2022-10-26T02:04:42.341Z,7.50
2022-10-26T02:07:18.699Z,7.40
2022-10-26T02:09:57.321Z,6.35
2022-10-26T02:12:34.261Z,6.82
2022-10-26T02:15:09.000Z,6.78
2022-10-26T02:17:46.452Z,7.43
2022-10-26T02:20:19.900Z,7.18
2022-10-26T02:22:50.388Z,7.88
2022-10-26T02:25:22.511Z,6.97
2022-10-26T02:27:55.032Z,6.93
2022-10-26T02:30:23.231Z,6.95
2022-10-26T02:32:55.231Z,7.38
2022-10-26T02:35:28.142Z,7.13
2022-10-26T02:37:57.711Z,6.25
2022-10-26T02:40:27.830Z,7.00
2022-10-26T02:42:58.091Z,6.55
2022-10-26T02:45:29.014Z,6.65
2022-10-26T02:47:59.110Z,7.07
2022-10-26T02:50:32.351Z,6.82
2022-10-26T02:53:10.900Z,8.75
2022-10-26T02:55:44.452Z,7.55
2022-10-26T02:58:18.691Z,7.18
2022-10-26T03:00:47.050Z,6.95
2022-10-26T03:03:16.621Z,6.30
2022-10-26T03:05:44.599Z,6.20
2022-10-26T03:08:12.379Z,5.78
2022-10-26T03:10:42.824Z,6.38
2022-10-26T03:13:11.531Z,6.28
2022-10-26T03:18:13.410Z,6.15
2022-10-26T03:23:17.595Z,5.68
2022-10-26T03:25:45.220Z,6.03
2022-10-26T03:28:13.581Z,5.75
2022-10-26T03:30:41.249Z,5.68
2022-10-26T03:33:09.022Z,5.82
2022-10-26T03:35:36.860Z,5.45
2022-10-26T03:38:06.202Z,6.03
2022-10-26T03:40:33.859Z,5.78
2022-10-26T03:43:01.661Z,5.60
2022-10-26T03:45:29.490Z,5.18
2022-10-26T03:47:57.289Z,5.60
2022-10-26T03:50:24.919Z,5.05
2022-10-26T03:52:52.887Z,5.13
2022-10-26T03:55:22.159Z,5.22
2022-10-26T03:57:49.889Z,5.32
2022-10-26T04:00:18.619Z,6.00
2022-10-26T04:02:53.459Z,5.88
2022-10-26T04:05:21.218Z,5.18
2022-10-26T04:07:53.389Z,5.85
2022-10-26T04:10:22.850Z,5.97
2022-10-26T04:15:23.707Z,6.47
2022-10-26T04:17:56.970Z,5.82
2022-10-26T04:20:25.048Z,6.18
2022-10-26T04:23:03.096Z,5.30
2022-10-26T04:25:33.852Z,6.10
2022-10-26T04:28:03.009Z,6.20
2022-10-26T04:30:30.721Z,5.78
2022-10-26T04:32:58.589Z,6.32
2022-10-26T04:35:26.489Z,6.38
2022-10-26T04:37:59.184Z,5.80
2022-10-26T04:40:27.817Z,5.75
2022-10-26T04:42:57.802Z,5.97
2022-10-26T04:45:28.743Z,5.70
2022-10-26T04:48:01.285Z,6.18
2022-10-26T04:50:29.685Z,5.88
2022-10-26T04:52:58.551Z,5.93
2022-10-26T04:55:27.000Z,6.25
2022-10-26T04:57:58.694Z,6.47
2022-10-26T05:00:30.587Z,5.70
2022-10-26T05:03:02.281Z,6.47
2022-10-26T05:05:32.490Z,6.20
2022-10-26T05:08:01.033Z,6.25
2022-10-26T05:10:29.602Z,7.05
2022-10-26T05:13:01.014Z,6.88
2022-10-26T05:15:30.081Z,6.93
2022-10-26T05:17:59.462Z,7.05
2022-10-26T05:20:31.856Z,7.03
2022-10-26T05:23:01.601Z,7.25
2022-10-26T05:25:32.161Z,7.10
2022-10-26T05:28:03.151Z,6.97
2022-10-26T05:30:32.473Z,7.13
2022-10-26T05:33:03.522Z,8.27
2022-10-26T05:35:32.696Z,7.55
2022-10-26T05:38:01.000Z,8.10
2022-10-26T05:40:29.271Z,8.07
2022-10-26T05:43:04.697Z,7.75
2022-10-26T05:45:33.076Z,8.73
2022-10-26T05:48:02.801Z,8.70
2022-10-26T05:50:31.650Z,8.73
2022-10-26T05:52:59.909Z,8.63
2022-10-26T05:55:29.081Z,10.10
2022-10-26T05:58:02.068Z,9.82
2022-10-26T06:00:31.141Z,10.77
2022-10-26T06:03:14.654Z,10.50
2022-10-26T06:05:53.767Z,9.80
2022-10-26T06:08:23.914Z,9.85
2022-10-26T06:10:54.331Z,10.23
2022-10-26T06:13:24.716Z,9.55
2022-10-26T06:16:09.549Z,11.05
2022-10-26T06:18:46.592Z,10.80
2022-10-26T06:21:31.496Z,9.65
2022-10-26T06:24:06.054Z,9.73
2022-10-26T06:26:42.874Z,10.25
2022-10-26T06:29:22.990Z,10.02
2022-10-26T06:31:51.217Z,10.77
2022-10-26T06:34:27.621Z,10.98
2022-10-26T06:36:58.129Z,11.57
2022-10-26T06:39:29.103Z,12.75
2022-10-26T06:41:58.775Z,12.98
2022-10-26T06:44:29.250Z,12.73
2022-10-26T06:47:06.335Z,12.95
2022-10-26T06:49:38.257Z,12.48
2022-10-26T06:52:16.201Z,12.52
2022-10-26T06:54:52.251Z,13.52
2022-10-26T06:57:21.947Z,13.60
2022-10-26T06:59:53.768Z,12.07
2022-10-26T07:02:24.727Z,13.00
2022-10-26T07:04:52.974Z,12.98
2022-10-26T07:07:23.157Z,12.48
2022-10-26T07:09:51.824Z,13.23
2022-10-26T07:12:20.063Z,12.05
2022-10-26T07:14:48.535Z,11.75
2022-10-26T07:17:18.257Z,11.60
2022-10-26T07:19:46.505Z,12.05
2022-10-26T07:22:14.607Z,11.73
2022-10-26T07:24:42.770Z,9.77
2022-10-26T07:27:10.925Z,10.23
2022-10-26T07:29:40.069Z,9.80
2022-10-26T07:32:08.268Z,9.90
2022-10-26T07:34:37.913Z,10.85
2022-10-26T07:37:06.061Z,10.07
2022-10-26T07:39:34.314Z,10.00
2022-10-26T07:42:02.344Z,9.80
2022-10-26T07:44:30.605Z,10.00
2022-10-26T07:46:58.898Z,9.15
2022-10-26T07:49:27.897Z,10.95
2022-10-26T07:51:57.724Z,11.15
2022-10-26T07:54:26.039Z,11.63
2022-10-26T07:56:54.211Z,11.52
2022-10-26T07:59:22.530Z,13.43
2022-10-26T08:01:50.856Z,14.05
2022-10-26T08:04:19.271Z,13.50
2022-10-26T08:06:47.674Z,15.30
2022-10-26T08:09:17.362Z,15.93
2022-10-26T08:11:45.399Z,17.70
2022-10-26T08:14:13.885Z,18.88
2022-10-26T08:16:42.026Z,18.25
2022-10-26T08:19:10.387Z,19.17
2022-10-26T08:21:40.442Z,19.20
2022-10-26T08:24:09.895Z,19.10
2022-10-26T08:26:39.507Z,19.60
2022-10-26T08:29:07.887Z,17.58
2022-10-26T08:31:36.105Z,17.42
2022-10-26T08:34:04.832Z,17.08
2022-10-26T08:36:33.134Z,13.73
2022-10-26T08:39:01.397Z,13.02
2022-10-26T08:41:37.098Z,13.32
2022-10-26T08:44:20.010Z,10.60
2022-10-26T08:46:53.679Z,10.15
2022-10-26T08:49:26.059Z,10.90
2022-10-26T08:51:58.284Z,9.27
2022-10-26T08:57:17.281Z,9.07
2022-10-26T08:59:53.279Z,9.43
2022-10-26T09:02:22.170Z,9.15
2022-10-26T09:07:37.821Z,10.43
2022-10-26T09:10:19.616Z,8.23
2022-10-26T09:12:54.928Z,9.77
2022-10-26T09:15:35.283Z,9.13
2022-10-26T09:18:16.210Z,8.68
2022-10-26T09:21:01.632Z,8.38
2022-10-26T09:23:42.100Z,8.75
2022-10-26T09:26:14.341Z,7.85
2022-10-26T09:28:45.189Z,9.27
2022-10-26T09:31:17.530Z,9.20
2022-10-26T09:33:45.650Z,8.90
2022-10-26T09:36:18.745Z,9.25
2022-10-26T09:38:53.926Z,8.93
2022-10-26T09:41:29.569Z,9.38
2022-10-26T09:44:06.259Z,8.88
2022-10-26T09:46:43.695Z,9.73
2022-10-26T09:49:15.793Z,9.07
2022-10-26T09:51:46.503Z,9.15
2022-10-26T09:54:17.153Z,9.27
2022-10-26T09:59:24.628Z,6.60
2022-10-26T10:01:54.323Z,8.85
2022-10-26T10:04:23.533Z,9.10
2022-10-26T10:06:52.632Z,8.85
2022-10-26T10:09:22.951Z,8.77
2022-10-26T10:11:57.082Z,7.70
2022-10-26T10:14:26.475Z,7.85
2022-10-26T10:16:58.821Z,7.55
2022-10-26T10:19:29.011Z,7.47
2022-10-26T10:21:59.380Z,8.35
2022-10-26T10:24:32.221Z,7.80
2022-10-26T10:27:02.991Z,7.85
2022-10-26T10:29:33.013Z,8.60
2022-10-26T10:32:03.710Z,7.95
2022-10-26T10:34:32.991Z,8.40
2022-10-26T10:37:05.432Z,8.27
2022-10-26T10:39:43.593Z,7.70
2022-10-26T10:42:19.070Z,7.95
2022-10-26T10:44:51.682Z,7.93
2022-10-26T10:47:24.380Z,7.85
2022-10-26T10:49:56.060Z,8.35
2022-10-26T10:52:27.750Z,8.10
2022-10-26T10:55:10.833Z,7.38
2022-10-26T10:57:55.260Z,7.15
2022-10-26T11:00:25.861Z,8.15
2022-10-26T11:03:47.703Z,7.03
2022-10-26T11:06:19.380Z,6.68
2022-10-26T11:08:51.480Z,7.63
2022-10-26T11:11:23.461Z,7.00
2022-10-26T11:13:55.651Z,6.43
2022-10-26T11:16:28.901Z,6.95
2022-10-26T11:19:03.529Z,6.25
2022-10-26T11:21:34.412Z,6.63
2022-10-26T11:24:15.305Z,6.65
2022-10-26T11:26:49.445Z,7.05
2022-10-26T11:29:24.231Z,6.53
2022-10-26T11:31:58.078Z,6.85
2022-10-26T11:34:34.893Z,7.68
2022-10-26T11:37:09.836Z,7.07
2022-10-26T11:39:44.924Z,7.45
2022-10-26T11:42:22.372Z,6.80
2022-10-26T11:44:56.612Z,7.05
2022-10-26T11:47:35.220Z,6.10
2022-10-26T11:50:17.130Z,7.00
2022-10-26T11:52:50.796Z,6.90
2022-10-26T11:55:20.160Z,6.93
2022-10-26T11:57:49.132Z,5.60
2022-10-26T12:00:20.913Z,6.93
2022-10-26T12:02:53.016Z,7.80
2022-10-26T12:05:25.817Z,7.10
2022-10-26T12:07:56.901Z,7.10
2022-10-26T12:10:30.523Z,6.88
2022-10-26T12:13:06.158Z,7.28
2022-10-26T12:18:54.540Z,6.03
2022-10-26T12:21:26.731Z,6.70
2022-10-26T12:23:56.933Z,7.22
2022-10-26T12:26:52.461Z,7.22
2022-10-26T12:29:39.270Z,6.28
2022-10-26T12:32:54.999Z,7.05
2022-10-26T12:35:38.382Z,6.78
2022-10-26T12:38:48.799Z,6.65
2022-10-26T12:41:25.758Z,6.78
2022-10-26T12:43:59.723Z,6.82
2022-10-26T12:46:43.415Z,6.85
2022-10-26T12:49:56.321Z,7.30
2022-10-26T12:52:53.283Z,6.78
2022-10-26T12:55:51.183Z,6.18
2022-10-26T12:59:00.025Z,5.45
2022-10-26T13:01:58.553Z,6.15
2022-10-26T13:04:56.050Z,6.32
2022-10-26T13:07:25.953Z,6.55
2022-10-26T13:10:00.869Z,7.30
2022-10-26T13:12:37.619Z,6.25
2022-10-26T13:15:20.998Z,5.78
2022-10-26T13:17:57.039Z,6.82
2022-10-26T13:20:25.185Z,6.50
2022-10-26T13:22:53.672Z,7.05
2022-10-26T13:25:25.108Z,6.35
2022-10-26T13:28:05.735Z,6.35
2022-10-26T13:30:44.965Z,5.50
2022-10-26T13:33:22.771Z,6.35
2022-10-26T13:35:54.192Z,6.32
2022-10-26T13:38:26.207Z,6.25
2022-10-26T13:41:08.161Z,6.22
2022-10-26T13:43:37.829Z,6.68
2022-10-26T13:46:07.507Z,6.50
2022-10-26T13:48:40.005Z,5.82
2022-10-26T13:51:19.082Z,6.10
2022-10-26T13:53:51.779Z,6.32
2022-10-26T13:56:27.740Z,6.22
2022-10-26T13:59:00.668Z,6.40
2022-10-26T14:01:32.409Z,6.88
2022-10-26T14:04:00.447Z,6.35
2022-10-26T14:06:32.652Z,6.70
2022-10-26T14:09:03.703Z,6.15
2022-10-26T14:11:37.359Z,6.30
2022-10-26T14:14:05.499Z,6.35
2022-10-26T14:16:35.678Z,6.10
2022-10-26T14:19:04.251Z,6.40
2022-10-26T14:21:32.287Z,5.53
2022-10-26T14:24:07.733Z,7.03
2022-10-26T14:26:40.237Z,5.90
2022-10-26T14:29:17.754Z,6.30
2022-10-26T14:31:48.002Z,6.15
2022-10-26T14:34:16.075Z,6.18
2022-10-26T14:36:48.994Z,5.68
2022-10-26T14:39:25.116Z,7.35
2022-10-26T14:41:55.740Z,6.80
2022-10-26T14:44:25.980Z,5.85
2022-10-26T14:46:55.399Z,6.68
2022-10-26T14:49:25.081Z,6.78
2022-10-26T14:51:58.343Z,5.95
2022-10-26T14:54:28.046Z,6.43
2022-10-26T14:56:56.502Z,6.10
2022-10-26T14:59:27.171Z,6.60
2022-10-26T15:01:59.162Z,6.22
2022-10-26T15:04:34.533Z,6.05
2022-10-26T15:07:09.033Z,6.82
2022-10-26T15:09:43.562Z,6.90
2022-10-26T15:12:29.991Z,5.90
2022-10-26T15:15:08.154Z,5.85
2022-10-26T15:17:41.671Z,5.90
2022-10-26T15:20:16.840Z,6.53
2022-10-26T15:22:51.954Z,5.63
2022-10-26T15:25:23.375Z,6.78
2022-10-26T15:27:52.155Z,6.95
2022-10-26T15:30:24.323Z,7.07
2022-10-26T15:32:54.834Z,6.03
2022-10-26T15:35:29.025Z,6.95
2022-10-26T15:37:58.206Z,7.13
2022-10-26T15:40:27.057Z,6.72
2022-10-26T15:42:55.894Z,6.03
2022-10-26T15:45:25.732Z,7.82
2022-10-26T15:47:59.432Z,6.55
2022-10-26T15:50:29.112Z,7.15
2022-10-26T15:53:01.356Z,8.02
2022-10-26T15:55:30.589Z,7.15
2022-10-26T15:57:58.295Z,7.80
2022-10-26T16:00:26.090Z,7.93
2022-10-26T16:02:55.052Z,8.60
2022-10-26T16:05:22.831Z,7.00
2022-10-26T16:07:50.920Z,7.25
2022-10-26T16:10:22.599Z,7.30
2022-10-26T16:12:50.512Z,7.93
2022-10-26T16:15:20.323Z,6.97
2022-10-26T16:17:48.484Z,7.53
2022-10-26T16:20:19.754Z,7.65
2022-10-26T16:22:48.479Z,7.53
2022-10-26T16:25:28.228Z,7.43
2022-10-26T16:27:56.224Z,6.63
2022-10-26T16:30:29.455Z,7.10
2022-10-26T16:32:58.264Z,7.55
2022-10-26T16:35:27.329Z,7.90
2022-10-26T16:37:54.981Z,7.78
2022-10-26T16:40:22.830Z,8.20
2022-10-26T16:42:50.505Z,7.80
2022-10-26T16:45:18.436Z,8.60
2022-10-26T16:47:46.500Z,7.90
2022-10-26T16:50:14.977Z,8.65
2022-10-26T16:52:44.321Z,11.05
2022-10-26T16:55:12.086Z,11.57
2022-10-26T16:57:39.751Z,12.82
2022-10-26T17:00:08.559Z,10.60
2022-10-26T17:02:40.208Z,9.65
2022-10-26T17:05:09.827Z,9.30
2022-10-26T17:07:38.598Z,8.93
2022-10-26T17:10:08.289Z,8.70
2022-10-26T17:12:36.029Z,8.85
2022-10-26T17:15:03.879Z,8.02
2022-10-26T17:17:31.565Z,8.30
2022-10-26T17:19:59.183Z,7.32
2022-10-26T17:22:27.476Z,8.38
2022-10-26T17:24:58.349Z,8.00
2022-10-26T17:27:27.870Z,8.45
2022-10-26T17:29:55.753Z,8.35
2022-10-26T17:32:23.855Z,8.80
2022-10-26T17:34:51.574Z,8.55
2022-10-26T17:37:19.411Z,8.40
2022-10-26T17:39:47.291Z,9.10
2022-10-26T17:42:15.003Z,8.38
2022-10-26T17:44:44.076Z,8.02
2022-10-26T17:47:12.226Z,9.05
2022-10-26T17:49:40.227Z,8.63
2022-10-26T17:52:08.012Z,9.25
2022-10-26T17:54:35.942Z,9.52
2022-10-26T17:57:03.958Z,9.52
2022-10-26T17:59:31.798Z,9.20
2022-10-26T18:02:01.175Z,9.80
2022-10-26T18:04:29.122Z,9.48
2022-10-26T18:06:56.912Z,9.32
2022-10-26T18:10:08.862Z,9.85
2022-10-26T18:12:45.321Z,9.10
2022-10-26T18:15:13.183Z,9.25
2022-10-26T18:17:42.956Z,9.32
2022-10-26T18:20:11.585Z,8.77
2022-10-26T18:22:40.013Z,10.02
2022-10-26T18:25:12.157Z,9.02
2022-10-26T18:27:39.977Z,10.50
2022-10-26T18:30:13.760Z,9.13
2022-10-26T18:32:44.164Z,9.75
2022-10-26T18:35:12.281Z,10.13
2022-10-26T18:37:40.141Z,10.60
2022-10-26T18:40:09.014Z,10.85
2022-10-26T18:45:09.903Z,11.13
2022-10-26T18:47:37.749Z,9.23
2022-10-26T18:50:08.941Z,9.48
2022-10-26T18:52:36.757Z,10.00
2022-10-26T18:55:06.026Z,10.73
2022-10-26T18:57:33.839Z,10.60
2022-10-26T19:00:02.052Z,11.35
2022-10-26T19:02:30.083Z,9.88
2022-10-26T19:04:59.006Z,9.82
2022-10-26T19:07:28.466Z,10.93
2022-10-26T19:10:10.697Z,11.60
2022-10-26T19:12:38.446Z,10.82
2022-10-26T19:15:07.129Z,9.43
2022-10-26T19:17:35.270Z,11.00
2022-10-26T19:20:03.089Z,10.98
2022-10-26T19:22:33.036Z,10.32
2022-10-26T19:25:01.152Z,10.32
2022-10-26T19:27:29.017Z,9.80
2022-10-26T19:29:56.827Z,11.57
2022-10-26T19:32:27.875Z,9.68
2022-10-26T19:34:55.675Z,10.80
2022-10-26T19:37:28.151Z,9.88
2022-10-26T19:39:57.806Z,10.27
2022-10-26T19:42:25.544Z,9.65
2022-10-26T19:44:53.423Z,10.45
2022-10-26T19:47:21.158Z,10.90
2022-10-26T19:49:48.970Z,10.43
2022-10-26T19:54:50.220Z,10.27
2022-10-26T19:57:19.540Z,10.25
2022-10-26T19:59:47.268Z,9.00
2022-10-26T20:02:14.967Z,10.07
2022-10-26T20:04:42.720Z,9.80
2022-10-26T20:07:10.633Z,9.95
2022-10-26T20:09:42.138Z,9.85
2022-10-26T20:12:12.875Z,8.70
2022-10-26T20:14:43.015Z,8.32
2022-10-26T20:17:12.517Z,8.07
2022-10-26T20:19:40.308Z,8.70
2022-10-26T20:22:08.287Z,7.45
2022-10-26T20:24:36.134Z,7.20
2022-10-26T20:27:04.368Z,7.20
2022-10-26T20:29:32.125Z,7.95
2022-10-26T20:32:01.321Z,7.88
2022-10-26T20:37:01.621Z,7.38
2022-10-26T20:39:29.863Z,7.15
2022-10-26T20:42:01.058Z,7.68
2022-10-26T20:44:34.551Z,6.93
2022-10-26T20:47:04.493Z,6.53
2022-10-26T20:49:32.936Z,7.28
2022-10-26T20:52:20.764Z,6.88
2022-10-26T20:54:55.247Z,7.28
2022-10-26T20:57:29.228Z,6.40
2022-10-26T21:00:04.052Z,6.72
2022-10-26T21:02:33.452Z,6.57
2022-10-26T21:05:01.846Z,6.68
2022-10-26T21:07:29.691Z,6.63
2022-10-26T21:09:57.290Z,6.68
2022-10-26T21:12:24.973Z,6.97
2022-10-26T21:14:52.484Z,7.30
2022-10-26T21:17:20.157Z,5.80
2022-10-26T21:19:49.255Z,6.30
2022-10-26T21:22:17.058Z,6.90
2022-10-26T21:24:44.795Z,7.03
2022-10-26T21:27:12.497Z,6.70
2022-10-26T21:29:40.190Z,7.35
2022-10-26T21:32:07.868Z,7.47
2022-10-26T21:34:35.621Z,7.57
2022-10-26T21:37:04.684Z,7.00
2022-10-26T21:39:32.333Z,7.65
2022-10-26T21:42:00.114Z,7.93
2022-10-26T21:44:43.065Z,7.93
2022-10-26T21:47:12.817Z,8.50
2022-10-26T21:52:15.567Z,7.90
2022-10-26T21:54:43.200Z,7.32
2022-10-26T21:57:11.198Z,8.50
2022-10-26T21:59:38.996Z,8.57
2022-10-26T22:02:06.923Z,9.10
2022-10-26T22:04:34.798Z,10.10
2022-10-26T22:07:02.947Z,8.82
2022-10-26T22:09:37.363Z,9.13
2022-10-26T22:12:12.776Z,8.25
2022-10-26T22:14:41.527Z,8.55
2022-10-26T22:17:09.598Z,8.65
2022-10-26T22:19:38.058Z,8.63
2022-10-26T22:22:05.831Z,8.27
2022-10-26T22:24:34.987Z,7.22
2022-10-26T22:27:02.837Z,6.95
2022-10-26T22:29:30.619Z,7.55
2022-10-26T22:31:58.689Z,6.95
2022-10-26T22:34:26.407Z,7.25
2022-10-26T22:36:54.299Z,7.07
2022-10-26T22:39:22.039Z,6.00
2022-10-26T22:41:51.343Z,6.40
2022-10-26T22:44:19.018Z,7.55
2022-10-26T22:46:49.863Z,6.63
2022-10-26T22:49:17.674Z,7.32
2022-10-26T22:51:45.323Z,7.13
2022-10-26T22:54:13.424Z,6.18
2022-10-26T22:56:41.106Z,7.53
2022-10-26T22:59:10.199Z,6.50
2022-10-26T23:01:39.475Z,7.45
2022-10-26T23:04:07.439Z,6.32
2022-10-26T23:06:35.230Z,6.30
2022-10-26T23:09:03.035Z,6.40
2022-10-26T23:11:30.903Z,6.30
2022-10-26T23:13:59.886Z,6.13
2022-10-26T23:16:30.423Z,6.13
2022-10-26T23:18:58.942Z,6.75
2022-10-26T23:21:28.372Z,6.97
2022-10-26T23:23:56.933Z,6.55
2022-10-26T23:26:25.028Z,6.55
2022-10-26T23:28:53.107Z,5.90
2022-10-26T23:31:23.307Z,6.00
2022-10-26T23:33:53.868Z,5.50
2022-10-26T23:36:22.018Z,6.18
2022-10-26T23:38:50.379Z,5.45
2022-10-26T23:41:18.399Z,6.18
2022-10-26T23:43:46.439Z,5.78
2022-10-26T23:46:14.384Z,5.32
2022-10-26T23:48:42.798Z,5.57
2022-10-26T23:51:12.117Z,5.40
2022-10-26T23:53:40.048Z,5.43
2022-10-26T23:56:08.257Z,5.85
2022-10-26T23:58:36.169Z,5.70
